Time;durP1;ratioP1;P1;durP2;ratioP2;P2;SDS_P1;SDS_P2;PMS_P1;PMS_P2;Temp;Humidity;BMP_temperature;BMP_pressure;BME280_temperature;BME280_humidity;BME280_pressure;Samples;Min_cycle;Max_cycle;Signal;HPM_P1;HPM_P2
2023/10/14 00:01:27;;;;;;;;;0.00;0.00;;;;;21.40;67.85;100461.16;6340250;22;45520;-73
2023/10/14 00:03:56;;;;;;;;;0.00;0.00;;;;;21.37;67.72;100456.84;6340187;22;45342;-73
2023/10/14 00:06:22;;;;;;;;;0.00;0.00;;;;;21.33;67.88;100458.06;6340061;22;45440;-73
2023/10/14 00:09:01;;;;;;;;;0.00;0.00;;;;;21.36;67.95;100459.69;6339686;22;46519;-73
2023/10/14 00:11:34;;;;;;;;;0.00;0.00;;;;;21.35;68.30;100455.25;6340503;22;45479;-73
2023/10/14 00:13:59;;;;;;;;;0.00;0.00;;;;;21.36;67.73;100465.97;6340592;22;45366;-73
2023/10/14 00:16:30;;;;;;;;;0.00;0.00;;;;;21.38;68.08;100479.41;6340258;22;45374;-73
2023/10/14 00:19:03;;;;;;;;;0.00;0.00;;;;;21.38;68.54;100484.84;6340137;22;46064;-73
2023/10/14 00:21:29;;;;;;;;;0.00;0.00;;;;;21.36;68.57;100495.84;6340121;22;45441;-73
2023/10/14 00:24:01;;;;;;;;;0.00;0.00;;;;;21.34;69.61;100496.97;6340659;22;45233;-73
2023/10/14 00:26:27;;;;;;;;;0.25;0.00;;;;;21.30;69.80;100499.06;6340827;22;45469;-73
2023/10/14 00:31:37;;;;;;;;;0.00;0.00;;;;;21.27;70.80;100508.31;6340501;22;45242;-73
2023/10/14 00:34:03;;;;;;;;;1.75;0.00;;;;;21.27;70.64;100507.47;6340426;22;45484;-73
2023/10/14 00:36:31;;;;;;;;;0.00;0.00;;;;;21.26;70.91;100513.88;6339663;22;45687;-73
2023/10/14 00:39:00;;;;;;;;;0.00;0.00;;;;;21.23;71.30;100520.44;6338225;22;45316;-73
2023/10/14 00:41:26;;;;;;;;;0.00;0.00;;;;;21.23;70.89;100522.25;6339843;22;45480;-73
2023/10/14 00:43:53;;;;;;;;;0.00;0.00;;;;;21.19;71.00;100524.34;6340070;22;45333;-73
2023/10/14 00:46:22;;;;;;;;;0.00;0.00;;;;;21.22;71.70;100517.84;6340353;22;45664;-73
2023/10/14 00:48:58;;;;;;;;;0.00;0.00;;;;;21.23;71.29;100534.00;6339915;22;46801;-73
2023/10/14 00:51:26;;;;;;;;;0.00;0.00;;;;;21.17;71.69;100528.19;6339411;22;45331;-73
2023/10/14 00:53:52;;;;;;;;;0.00;0.00;;;;;21.20;71.67;100549.63;6339516;22;45332;-73
2023/10/14 00:56:20;;;;;;;;;0.00;0.00;;;;;21.14;71.81;100572.72;6339948;22;45330;-73
2023/10/14 00:58:50;;;;;;;;;0.25;0.00;;;;;21.15;73.13;100573.56;6339734;22;45255;-73
2023/10/14 01:01:17;;;;;;;;;0.00;0.00;;;;;21.00;74.51;100581.97;6340478;22;45435;-72
2023/10/14 01:03:43;;;;;;;;;0.00;0.00;;;;;21.01;74.04;100590.97;6339804;22;45260;-72
2023/10/14 01:06:53;;;;;;;;;0.50;0.00;;;;;20.99;73.83;100599.22;6339868;22;45260;-72
2023/10/14 01:09:10;;;;;;;;;0.00;0.00;;;;;20.95;74.42;100588.72;6332031;22;46578;-72
2023/10/14 01:11:37;;;;;;;;;0.00;0.00;;;;;20.89;74.49;100590.94;6339519;22;45366;-72
2023/10/14 01:14:06;;;;;;;;;0.50;0.00;;;;;20.91;74.93;100601.66;6340347;22;45338;-72
2023/10/14 01:16:37;;;;;;;;;0.00;0.00;;;;;20.89;75.03;100617.19;6339865;22;45374;-73
2023/10/14 01:19:03;;;;;;;;;0.00;0.00;;;;;20.84;74.87;100614.00;6339501;22;46950;-72
2023/10/14 01:21:28;;;;;;;;;0.00;0.00;;;;;20.72;75.45;100613.09;6339355;22;45524;-73
2023/10/14 01:23:58;;;;;;;;;0.00;0.00;;;;;20.63;74.29;100614.66;6339801;22;45302;-72
2023/10/14 01:26:25;;;;;;;;;0.00;0.00;;;;;20.61;74.75;100624.72;6339174;22;45502;-72
2023/10/14 01:28:58;;;;;;;;;0.25;0.00;;;;;20.53;74.68;100627.13;6339097;22;46261;-72
2023/10/14 01:32:07;;;;;;;;;0.50;0.00;;;;;20.51;74.58;100643.56;6339061;22;45327;-72
2023/10/14 01:34:42;;;;;;;;;0.25;0.25;;;;;20.40;74.96;100639.91;6339269;22;45299;-72
2023/10/14 01:37:14;;;;;;;;;0.00;0.00;;;;;20.32;74.77;100641.34;6340401;22;45344;-72
2023/10/14 01:39:48;;;;;;;;;1.50;0.00;;;;;20.31;74.60;100652.31;6339490;22;46288;-72
2023/10/14 01:42:15;;;;;;;;;0.00;0.00;;;;;20.28;74.70;100652.53;6339898;22;45321;-72
2023/10/14 01:44:41;;;;;;;;;0.00;0.00;;;;;20.20;74.09;100653.13;6339936;22;45333;-72
2023/10/14 01:47:07;;;;;;;;;2.25;0.00;;;;;20.14;73.86;100667.13;6339741;22;45506;-72
2023/10/14 01:49:35;;;;;;;;;0.00;0.00;;;;;20.11;73.52;100676.34;6340184;22;45346;-72
2023/10/14 01:52:00;;;;;;;;;0.00;0.00;;;;;20.06;73.14;100691.19;6338477;22;45353;-72
2023/10/14 01:54:27;;;;;;;;;2.25;0.00;;;;;20.03;72.73;100702.25;6338361;22;45298;-72
2023/10/14 01:56:54;;;;;;;;;0.50;0.00;;;;;19.93;72.59;100713.78;6339134;22;45390;-72
2023/10/14 01:59:23;;;;;;;;;1.50;0.00;;;;;19.84;72.46;100727.09;6339394;22;47033;-72
2023/10/14 02:01:49;;;;;;;;;1.75;0.00;;;;;19.70;72.38;100728.94;6340427;22;45355;-72
2023/10/14 02:04:15;;;;;;;;;0.00;0.00;;;;;19.61;72.48;100729.56;6339925;22;45370;-72
2023/10/14 02:06:43;;;;;;;;;0.00;0.00;;;;;19.49;72.54;100728.59;6339480;22;45332;-72
2023/10/14 02:09:09;;;;;;;;;1.00;0.25;;;;;19.43;72.54;100745.28;6339615;22;45448;-72
2023/10/14 02:11:35;;;;;;;;;0.25;0.25;;;;;19.39;72.54;100747.31;6339436;22;45322;-72
2023/10/14 02:14:11;;;;;;;;;0.25;0.00;;;;;19.35;72.17;100761.19;6340057;22;45322;-72
2023/10/14 02:16:44;;;;;;;;;1.50;1.00;;;;;19.25;71.77;100761.81;6339818;22;45335;-73
2023/10/14 02:22:02;;;;;;;;;2.00;0.25;;;;;19.13;70.44;100783.41;6338934;22;45251;-72
2023/10/14 02:24:29;;;;;;;;;0.25;0.00;;;;;19.07;69.04;100798.22;6339712;22;45263;-72
2023/10/14 02:26:58;;;;;;;;;3.50;1.00;;;;;18.93;68.77;100796.44;6339879;22;45373;-72
2023/10/14 02:29:24;;;;;;;;;0.00;0.00;;;;;18.86;68.67;100793.28;6339175;22;46260;-72
2023/10/14 02:31:50;;;;;;;;;1.00;1.00;;;;;18.77;67.61;100801.97;6340743;22;45243;-72
2023/10/14 02:34:15;;;;;;;;;0.00;0.00;;;;;18.62;66.98;100797.56;6340795;22;45426;-72
2023/10/14 02:36:51;;;;;;;;;0.00;0.00;;;;;18.55;67.00;100799.81;6341058;22;45231;-72
2023/10/14 02:39:17;;;;;;;;;1.00;0.00;;;;;18.50;66.64;100800.09;6340612;22;46005;-72
2023/10/14 02:41:59;;;;;;;;;1.00;0.75;;;;;18.47;66.14;100812.94;6341239;22;45255;-72
2023/10/14 02:44:28;;;;;;;;;2.75;0.00;;;;;18.40;66.96;100819.72;6340464;22;45188;-72
2023/10/14 02:46:54;;;;;;;;;0.50;0.50;;;;;18.35;66.51;100820.00;6341126;22;45536;-72
2023/10/14 02:49:24;;;;;;;;;0.00;0.00;;;;;18.35;66.17;100824.56;6340800;22;45365;-72
2023/10/14 02:51:52;;;;;;;;;6.25;1.50;;;;;18.28;66.73;100815.97;6340441;22;45431;-72
2023/10/14 02:54:26;;;;;;;;;0.50;0.00;;;;;18.30;66.52;100827.53;6339825;22;45359;-72
2023/10/14 02:59:29;;;;;;;;;2.00;0.25;;;;;18.25;65.57;100844.03;6340445;22;46258;-72
2023/10/14 03:04:54;;;;;;;;;0.50;0.25;;;;;18.13;64.45;100848.38;6341021;22;45504;-72
2023/10/14 03:07:27;;;;;;;;;0.00;0.00;;;;;18.05;64.72;100856.09;6341007;22;45392;-72
2023/10/14 03:09:52;;;;;;;;;2.25;0.25;;;;;17.97;64.84;100858.38;6341032;22;46105;-72
2023/10/14 03:12:21;;;;;;;;;2.25;1.00;;;;;18.00;65.05;100868.16;6340993;22;45357;-72
2023/10/14 03:14:52;;;;;;;;;0.75;0.75;;;;;17.96;64.73;100881.84;6340586;22;45247;-72
2023/10/14 03:17:24;;;;;;;;;2.50;0.50;;;;;17.90;64.56;100875.94;6312546;22;45322;-72
2023/10/14 03:19:53;;;;;;;;;0.25;0.00;;;;;17.90;64.49;100890.31;6340440;22;45740;-72
2023/10/14 03:22:22;;;;;;;;;4.25;1.00;;;;;17.88;64.26;100891.38;6339444;22;45486;-72
2023/10/14 03:24:50;;;;;;;;;2.50;0.75;;;;;17.84;64.46;100895.16;6340693;22;45516;-72
2023/10/14 03:27:15;;;;;;;;;1.00;1.00;;;;;17.79;63.66;100898.13;6340580;22;45346;-72
2023/10/14 03:29:51;;;;;;;;;2.25;0.75;;;;;17.69;63.36;100896.97;6340434;22;45972;-72
2023/10/14 03:32:17;;;;;;;;;0.25;0.25;;;;;17.67;63.69;100899.75;6340616;22;45247;-72
2023/10/14 03:34:43;;;;;;;;;1.25;1.25;;;;;17.67;63.99;100898.88;6340751;22;45382;-72
2023/10/14 03:37:21;;;;;;;;;2.00;1.00;;;;;17.68;63.93;100908.75;6312709;22;45504;-72
2023/10/14 03:40:08;;;;;;;;;1.00;1.00;;;;;17.68;63.65;100916.84;6340275;22;46422;-72
2023/10/14 03:42:32;;;;;;;;;2.00;1.00;;;;;17.59;63.66;100911.03;6339457;22;45412;-72
2023/10/14 03:44:58;;;;;;;;;1.00;1.00;;;;;17.55;63.35;100909.44;6339288;22;46100;-72
2023/10/14 03:47:34;;;;;;;;;3.00;1.25;;;;;17.57;63.44;100918.34;6340350;22;45388;-72
2023/10/14 03:49:59;;;;;;;;;0.75;0.75;;;;;17.56;63.56;100913.91;6340251;22;45930;-72
2023/10/14 03:52:26;;;;;;;;;1.25;1.25;;;;;17.55;63.66;100904.03;6339245;22;45335;-72
2023/10/14 03:54:51;;;;;;;;;1.25;1.25;;;;;17.53;63.72;100924.88;6340090;22;45435;-72
2023/10/14 03:57:20;;;;;;;;;1.50;1.00;;;;;17.51;63.55;100923.25;6339910;22;45485;-72
2023/10/14 03:59:48;;;;;;;;;1.00;0.75;;;;;17.46;62.53;100928.91;6340325;22;45820;-72
2023/10/14 04:02:24;;;;;;;;;1.00;1.00;;;;;17.47;62.66;100932.44;6340321;22;45436;-73
2023/10/14 04:04:57;;;;;;;;;3.50;1.25;;;;;17.47;62.74;100944.09;6340227;22;45383;-72
2023/10/14 04:07:28;;;;;;;;;2.75;2.00;;;;;17.43;62.43;100944.41;6339897;22;45249;-72
2023/10/14 04:09:58;;;;;;;;;1.00;1.00;;;;;17.39;62.46;100960.75;6339964;22;46942;-72
2023/10/14 04:12:30;;;;;;;;;2.50;0.50;;;;;17.37;62.44;100951.00;6340067;22;45400;-72
2023/10/14 04:15:05;;;;;;;;;0.25;0.25;;;;;17.39;62.35;100974.25;6340511;22;45460;-72
2023/10/14 04:17:31;;;;;;;;;1.75;1.25;;;;;17.35;62.03;100966.41;6340041;22;45343;-72
2023/10/14 04:22:41;;;;;;;;;0.75;0.75;;;;;17.26;62.11;100970.50;6339403;22;45474;-72
2023/10/14 04:30:25;;;;;;;;;2.25;0.75;;;;;17.26;62.14;100978.59;6340547;22;45519;-72
2023/10/14 04:35:25;;;;;;;;;2.75;1.25;;;;;17.21;61.65;100978.84;6339978;22;45278;-72
2023/10/14 04:37:54;;;;;;;;;2.25;1.50;;;;;17.25;62.18;100989.47;6339965;22;45476;-72
2023/10/14 04:45:52;;;;;;;;;1.00;1.00;;;;;17.10;61.25;100994.78;6340384;22;45333;-72
2023/10/14 04:48:20;;;;;;;;;3.50;1.00;;;;;17.07;61.83;100996.78;6339771;22;45327;-72
2023/10/14 04:50:46;;;;;;;;;1.25;1.25;;;;;17.08;61.69;101007.47;6339446;22;46116;-73
2023/10/14 04:53:14;;;;;;;;;3.00;0.50;;;;;17.03;61.74;100994.25;6339559;22;45233;-72
2023/10/14 04:55:43;;;;;;;;;1.00;1.00;;;;;17.08;61.40;101009.31;6340375;22;45480;-72
2023/10/14 04:58:15;;;;;;;;;2.00;2.00;;;;;16.97;61.47;100996.41;6339808;22;45433;-72
2023/10/14 05:00:48;;;;;;;;;0.50;0.50;;;;;17.07;61.77;101015.66;6339542;22;46016;-73
2023/10/14 05:03:22;;;;;;;;;1.00;1.00;;;;;17.02;61.47;101010.50;6338352;22;45299;-72
2023/10/14 05:06:03;;;;;;;;;1.00;1.00;;;;;17.00;61.43;101010.59;6340329;22;45463;-72
2023/10/14 05:08:44;;;;;;;;;0.50;0.50;;;;;16.98;61.47;101017.91;6339783;22;45371;-72
2023/10/14 05:11:12;;;;;;;;;1.50;0.75;;;;;16.94;61.65;101010.94;6340050;22;46143;-72
2023/10/14 05:13:39;;;;;;;;;2.00;1.00;;;;;16.96;61.46;101022.50;6339667;22;45508;-72
2023/10/14 05:16:20;;;;;;;;;3.00;1.00;;;;;16.93;61.58;101019.97;6340267;22;45437;-72
2023/10/14 05:21:37;;;;;;;;;2.25;1.25;;;;;16.87;61.61;101012.22;6338236;22;45403;-72
2023/10/14 05:24:09;;;;;;;;;1.50;1.00;;;;;16.88;61.25;101022.06;6339711;22;45493;-72
2023/10/14 05:26:36;;;;;;;;;4.00;0.00;;;;;16.84;61.45;101018.66;6340224;22;45242;-72
2023/10/14 05:29:11;;;;;;;;;2.50;0.00;;;;;16.89;61.30;101028.31;6339672;22;45424;-72
2023/10/14 05:31:37;;;;;;;;;1.25;1.25;;;;;16.88;61.43;101045.47;6340284;22;46059;-72
2023/10/14 05:34:04;;;;;;;;;0.00;0.00;;;;;16.78;61.21;101032.44;6339905;22;45240;-72
2023/10/14 05:36:32;;;;;;;;;2.00;1.75;;;;;16.80;61.04;101053.91;6339866;22;45313;-72
2023/10/14 05:38:57;;;;;;;;;2.25;0.75;;;;;16.77;61.17;101048.69;6340122;22;45488;-72
2023/10/14 05:41:22;;;;;;;;;3.00;2.00;;;;;16.72;60.78;101053.44;6339286;22;46968;-72
2023/10/14 05:43:51;;;;;;;;;1.25;0.75;;;;;16.71;61.07;101059.81;6338173;22;62062;-73
2023/10/14 05:46:16;;;;;;;;;1.50;1.00;;;;;16.64;61.15;101054.72;6340411;22;45179;-72
2023/10/14 05:48:41;;;;;;;;;1.00;0.50;;;;;16.62;61.17;101055.75;6339870;22;45258;-72
2023/10/14 05:51:07;;;;;;;;;2.00;1.75;;;;;16.60;61.48;101065.75;6337897;22;45989;-72
2023/10/14 05:53:32;;;;;;;;;1.75;1.75;;;;;16.57;61.40;101072.19;6338825;22;45500;-73
2023/10/14 05:55:59;;;;;;;;;4.50;1.50;;;;;16.55;61.30;101074.06;6338615;22;59880;-74
2023/10/14 05:58:28;;;;;;;;;4.50;2.00;;;;;16.56;61.38;101077.66;6338466;22;45421;-75
2023/10/14 06:00:55;;;;;;;;;2.50;1.00;;;;;16.52;61.56;101076.06;6339007;22;45326;-75
2023/10/14 06:03:20;;;;;;;;;2.00;1.00;;;;;16.52;61.83;101079.63;6311770;22;45718;-75
2023/10/14 06:05:45;;;;;;;;;4.25;2.00;;;;;16.55;62.07;101087.53;6339463;22;45223;-74
2023/10/14 06:08:16;;;;;;;;;4.00;1.00;;;;;16.48;61.99;101083.44;6339475;22;50002;-76
2023/10/14 06:10:42;;;;;;;;;1.25;1.25;;;;;16.58;62.02;101102.69;6340178;22;46078;-75
2023/10/14 06:13:09;;;;;;;;;2.25;0.75;;;;;16.58;62.01;101102.69;6338197;22;48297;-75
2023/10/14 06:15:39;;;;;;;;;5.00;2.00;;;;;16.59;62.17;101116.09;6339809;22;45251;-75
2023/10/14 06:18:05;;;;;;;;;2.00;1.00;;;;;16.58;62.17;101119.72;6338419;22;45464;-75
2023/10/14 06:20:32;;;;;;;;;2.00;2.00;;;;;16.61;62.17;101130.34;6309950;22;47108;-74
2023/10/14 06:22:59;;;;;;;;;2.75;2.50;;;;;16.58;61.68;101122.41;6337178;22;45618;-75
2023/10/14 06:25:26;;;;;;;;;2.50;1.50;;;;;16.61;61.85;101129.50;6338356;22;45302;-77
2023/10/14 06:27:53;;;;;;;;;3.50;2.00;;;;;16.60;61.88;101125.91;6338564;22;45591;-76
2023/10/14 06:30:19;;;;;;;;;1.00;1.00;;;;;16.69;61.34;101135.38;6338299;22;46245;-77
2023/10/14 06:32:49;;;;;;;;;3.00;1.50;;;;;16.64;61.79;101140.97;6338696;22;45551;-76
2023/10/14 06:35:16;;;;;;;;;3.25;2.25;;;;;16.56;61.75;101137.81;6338507;22;45317;-76
2023/10/14 06:37:43;;;;;;;;;0.50;0.50;;;;;16.61;61.66;101151.91;6336676;22;45420;-75
2023/10/14 06:40:12;;;;;;;;;2.00;2.00;;;;;16.56;61.52;101147.72;6338795;22;45939;-76
2023/10/14 06:42:43;;;;;;;;;2.75;1.00;;;;;16.65;61.54;101161.56;6338952;22;45404;-75
2023/10/14 06:45:13;;;;;;;;;2.00;1.00;;;;;16.58;61.57;101143.97;6338257;22;45460;-78
2023/10/14 06:47:45;;;;;;;;;5.00;2.00;;;;;16.66;61.26;101160.63;6338840;22;45355;-76
2023/10/14 06:50:12;;;;;;;;;2.00;1.00;;;;;16.64;61.37;101165.25;6339447;22;46562;-77
2023/10/14 06:52:37;;;;;;;;;2.25;1.00;;;;;16.62;61.07;101161.75;6338645;22;45363;-76
2023/10/14 06:55:07;;;;;;;;;2.00;1.00;;;;;16.64;61.38;101165.25;6309923;22;45723;-76
2023/10/14 06:57:35;;;;;;;;;1.00;1.00;;;;;16.70;60.79;101171.25;6310491;22;45421;-76
2023/10/14 07:00:00;;;;;;;;;1.75;0.75;;;;;16.74;60.64;101186.31;6337130;22;45334;-77
2023/10/14 07:02:25;;;;;;;;;1.00;1.00;;;;;16.74;60.37;101186.31;6338639;22;45367;-76
2023/10/14 07:04:51;;;;;;;;;1.50;1.00;;;;;16.70;60.13;101191.00;6338201;22;53798;-77
2023/10/14 07:07:19;;;;;;;;;4.75;1.00;;;;;16.70;60.13;101190.13;6338882;22;45330;-77
2023/10/14 07:09:44;;;;;;;;;1.00;1.00;;;;;16.64;60.42;101189.50;6336414;22;46257;-71
2023/10/14 07:12:18;;;;;;;;;2.25;0.25;;;;;16.55;60.05;101168.38;6311060;22;45520;-71
2023/10/14 07:14:46;;;;;;;;;1.50;1.50;;;;;16.70;60.06;101201.78;6338961;22;45326;-72
2023/10/14 07:17:17;;;;;;;;;1.00;1.00;;;;;16.80;60.02;101215.66;6338937;22;45240;-70
2023/10/14 07:19:43;;;;;;;;;2.00;1.00;;;;;16.80;59.47;101235.41;6339441;22;46123;-72
2023/10/14 07:22:08;;;;;;;;;0.75;0.25;;;;;16.81;59.48;101236.28;6337034;22;45401;-77
2023/10/14 07:24:35;;;;;;;;;1.75;1.00;;;;;16.82;59.71;101244.31;6336765;22;51264;-70
2023/10/14 07:27:03;;;;;;;;;2.75;1.75;;;;;16.77;59.64;101237.38;6337676;22;45249;-70
2023/10/14 07:29:28;;;;;;;;;1.25;0.00;;;;;16.83;59.28;101240.66;6338472;22;45328;-70
2023/10/14 07:31:53;;;;;;;;;1.50;0.00;;;;;16.84;59.46;101238.84;6338976;22;45297;-70
2023/10/14 07:34:19;;;;;;;;;2.00;1.00;;;;;16.82;59.55;101243.41;6338286;22;45354;-71
2023/10/14 07:36:44;;;;;;;;;4.50;1.00;;;;;16.81;59.81;101252.47;6338604;22;54211;-71
2023/10/14 07:39:28;;;;;;;;;3.00;1.00;;;;;16.75;59.79;101244.69;6338876;22;46269;-72
2023/10/14 07:41:54;;;;;;;;;2.00;2.00;;;;;16.79;59.65;101254.34;6338774;22;45185;-72
2023/10/14 07:44:20;;;;;;;;;1.75;1.00;;;;;16.78;59.87;101258.88;6339361;22;45727;-72
2023/10/14 07:46:46;;;;;;;;;4.75;1.25;;;;;16.83;60.01;101266.75;6339263;22;45694;-72
2023/10/14 07:49:13;;;;;;;;;3.25;1.00;;;;;16.79;60.60;101266.03;6339439;22;46207;-72
2023/10/14 07:51:39;;;;;;;;;3.50;2.25;;;;;16.84;60.35;101272.09;6339812;22;45567;-72
2023/10/14 07:54:06;;;;;;;;;3.25;1.00;;;;;16.73;60.20;101251.97;6340086;22;45271;-72
2023/10/14 07:56:32;;;;;;;;;3.00;1.00;;;;;16.80;60.26;101264.19;6337083;22;45249;-72
2023/10/14 07:58:57;;;;;;;;;2.50;1.00;;;;;16.74;60.30;101259.09;6335970;22;45558;-71
2023/10/14 08:01:23;;;;;;;;;1.00;1.00;;;;;16.78;60.61;101271.50;6336026;22;45601;-72
2023/10/14 08:03:48;;;;;;;;;3.75;2.00;;;;;16.83;60.54;101274.84;6335822;22;45346;-72
2023/10/14 08:06:17;;;;;;;;;6.00;1.00;;;;;16.87;60.29;101281.84;6336011;22;45616;-72
2023/10/14 08:08:47;;;;;;;;;2.00;2.00;;;;;16.87;60.45;101281.84;6327366;22;46990;-73
2023/10/14 08:11:13;;;;;;;;;3.75;1.50;;;;;16.88;60.56;101296.22;6332036;22;45794;-73
2023/10/14 08:13:40;;;;;;;;;4.00;2.75;;;;;16.82;60.41;101292.84;6333441;22;45824;-73
2023/10/14 08:16:07;;;;;;;;;2.50;1.25;;;;;16.88;60.01;101294.38;6333576;22;45608;-73
2023/10/14 08:18:34;;;;;;;;;2.00;2.00;;;;;16.91;60.06;101296.94;6332305;22;45413;-71
2023/10/14 08:20:59;;;;;;;;;2.00;1.75;;;;;16.92;59.71;101301.34;6332433;22;45344;-73
2023/10/14 08:23:26;;;;;;;;;2.25;2.25;;;;;16.94;60.34;101301.28;6334377;22;45601;-74
2023/10/14 08:25:54;;;;;;;;;2.75;2.00;;;;;16.97;60.17;101304.72;6335385;22;45404;-74
2023/10/14 08:28:24;;;;;;;;;1.50;1.50;;;;;16.97;59.99;101303.81;6306463;22;46998;-74
2023/10/14 08:30:50;;;;;;;;;3.00;2.00;;;;;16.99;60.11;101301.91;6334745;22;45599;-72
2023/10/14 08:33:20;;;;;;;;;1.00;1.00;;;;;17.02;60.44;101310.75;6335976;22;45672;-72
2023/10/14 08:35:48;;;;;;;;;1.00;1.00;;;;;17.04;60.61;101316.94;6335782;22;45612;-73
2023/10/14 08:38:14;;;;;;;;;4.00;2.00;;;;;17.03;59.87;101315.19;6335871;22;45913;-72
2023/10/14 08:40:43;;;;;;;;;1.00;1.00;;;;;17.09;59.62;101321.22;6335860;22;45487;-73
2023/10/14 08:43:18;;;;;;;;;6.00;1.00;;;;;17.05;59.40;101312.41;6339035;22;45299;-72
2023/10/14 08:45:48;;;;;;;;;1.75;1.00;;;;;17.13;59.62;101322.81;6339781;22;45314;-72
2023/10/14 08:48:19;;;;;;;;;2.50;2.50;;;;;17.15;59.78;101320.91;6339795;22;46047;-72
2023/10/14 08:50:47;;;;;;;;;2.75;1.50;;;;;17.15;59.50;101313.69;6339303;22;45835;-72
2023/10/14 08:53:22;;;;;;;;;1.00;1.00;;;;;17.17;59.31;101319.00;6340437;22;45251;-72
2023/10/14 08:55:48;;;;;;;;;1.75;1.00;;;;;17.18;58.70;101316.22;6339986;22;45372;-72
2023/10/14 08:58:13;;;;;;;;;1.00;1.00;;;;;17.18;58.56;101320.75;6339139;22;46031;-72
2023/10/14 09:00:41;;;;;;;;;2.00;1.00;;;;;17.18;58.63;101329.72;6340335;22;45278;-72
2023/10/14 09:03:09;;;;;;;;;1.75;1.00;;;;;17.18;58.63;101326.16;6336422;22;45419;-74
2023/10/14 09:05:39;;;;;;;;;1.75;1.00;;;;;17.26;58.30;101344.63;6335362;22;45545;-72
2023/10/14 09:08:06;;;;;;;;;1.00;1.00;;;;;17.27;58.07;101341.00;6335240;22;45557;-71
2023/10/14 09:10:32;;;;;;;;;0.75;0.75;;;;;17.29;57.63;101344.47;6335824;22;45597;-71
2023/10/14 09:13:00;;;;;;;;;0.00;0.00;;;;;17.32;57.79;101338.94;6336265;22;45410;-71
2023/10/14 09:15:30;;;;;;;;;0.75;0.50;;;;;17.35;57.90;101341.47;6335300;22;45678;-71
2023/10/14 09:17:56;;;;;;;;;1.00;1.00;;;;;17.38;57.35;101338.63;6335881;22;46145;-71
2023/10/14 09:20:37;;;;;;;;;0.50;0.50;;;;;17.39;57.64;101341.25;6335484;22;45703;-72
2023/10/14 09:23:33;;;;;;;;;0.00;0.00;;;;;17.42;57.37;101340.19;6335418;22;45792;-71
2023/10/14 09:26:03;;;;;;;;;1.00;1.00;;;;;17.40;57.25;101336.72;6334736;22;45413;-71
2023/10/14 09:28:34;;;;;;;;;3.75;1.25;;;;;17.44;57.88;101346.41;6333770;22;45423;-71
2023/10/14 09:31:02;;;;;;;;;2.00;1.00;;;;;17.48;57.33;101349.81;6335285;22;45372;-72
2023/10/14 09:33:34;;;;;;;;;1.25;1.25;;;;;17.50;57.16;101354.16;6334660;22;45563;-71
2023/10/14 09:36:05;;;;;;;;;1.25;0.00;;;;;17.49;57.36;101351.56;6335316;22;45565;-71
2023/10/14 09:38:32;;;;;;;;;1.00;1.00;;;;;17.51;57.43;101350.53;6335198;22;46370;-71
2023/10/14 09:41:10;;;;;;;;;2.00;0.00;;;;;17.56;56.98;101350.31;6334562;22;45650;-71
2023/10/14 09:43:39;;;;;;;;;1.00;1.00;;;;;17.61;57.02;101359.03;6334886;22;45451;-71
2023/10/14 09:46:09;;;;;;;;;3.00;1.00;;;;;17.63;57.25;101358.94;6334122;22;45728;-72
2023/10/14 09:48:35;;;;;;;;;2.00;0.25;;;;;17.66;56.80;101356.06;6335074;22;45394;-71
2023/10/14 09:51:02;;;;;;;;;2.25;1.00;;;;;17.60;56.82;101350.03;6334994;22;45376;-72
2023/10/14 09:53:29;;;;;;;;;2.75;1.75;;;;;17.64;56.22;101353.47;6335308;22;45620;-71
2023/10/14 09:55:57;;;;;;;;;1.00;1.00;;;;;17.66;56.63;101361.47;6333453;22;45398;-73
2023/10/14 09:58:26;;;;;;;;;2.00;0.25;;;;;17.57;56.70;101347.53;6332437;22;45530;-72
2023/10/14 10:00:51;;;;;;;;;1.00;0.00;;;;;17.55;56.56;101352.09;6334882;22;45347;-72
2023/10/14 10:03:19;;;;;;;;;2.00;0.00;;;;;17.62;56.55;101360.75;6335157;22;45373;-72
2023/10/14 10:06:17;;;;;;;;;2.00;1.00;;;;;17.68;56.48;101373.09;6334487;22;45437;-73
2023/10/14 10:09:09;;;;;;;;;1.75;0.00;;;;;17.70;56.48;101365.78;6302676;22;45539;-72
2023/10/14 10:11:37;;;;;;;;;0.00;0.00;;;;;17.71;56.47;101390.00;6334310;22;45679;-73
2023/10/14 10:14:16;;;;;;;;;1.25;0.75;;;;;17.68;56.13;101379.34;6334765;22;45698;-73
2023/10/14 10:16:41;;;;;;;;;1.25;1.00;;;;;17.73;56.45;101392.63;6334296;22;45349;-72
2023/10/14 10:19:08;;;;;;;;;1.50;1.00;;;;;17.70;56.29;101381.97;6331906;22;45604;-72
2023/10/14 10:21:43;;;;;;;;;1.00;1.00;;;;;17.74;56.83;101391.63;6329602;22;45674;-72
2023/10/14 10:24:25;;;;;;;;;1.00;0.25;;;;;17.75;56.66;101396.97;6332262;22;45675;-71
2023/10/14 10:27:02;;;;;;;;;0.75;0.75;;;;;17.79;56.39;101397.66;6332849;22;45667;-72
2023/10/14 10:29:28;;;;;;;;;2.00;1.25;;;;;17.80;55.64;101395.88;6331938;22;46167;-71
2023/10/14 10:32:07;;;;;;;;;1.00;1.00;;;;;17.80;55.48;101398.56;6335342;22;45539;-71
2023/10/14 10:34:33;;;;;;;;;1.00;0.75;;;;;17.82;55.46;101404.75;6337227;22;45602;-71
2023/10/14 10:36:59;;;;;;;;;6.00;1.00;;;;;17.81;55.68;101409.28;6337365;22;45816;-71
2023/10/14 10:39:25;;;;;;;;;3.00;3.00;;;;;17.78;55.73;101414.84;6338102;22;45306;-71
2023/10/14 10:41:53;;;;;;;;;1.75;1.00;;;;;17.75;55.83;101415.00;6338193;22;45588;-71
2023/10/14 10:44:19;;;;;;;;;1.50;1.50;;;;;17.74;55.72;101419.53;6338275;22;45284;-70
2023/10/14 10:46:50;;;;;;;;;1.25;0.25;;;;;17.68;55.89;101417.16;6336686;22;48234;-71
2023/10/14 10:49:48;;;;;;;;;1.00;1.00;;;;;17.68;56.12;101413.56;6337563;22;46145;-71
2023/10/14 10:52:14;;;;;;;;;2.00;1.00;;;;;17.65;55.76;101417.28;6335421;22;45219;-71
2023/10/14 10:54:42;;;;;;;;;2.25;1.50;;;;;17.75;55.63;101426.66;6338699;22;45456;-71
2023/10/14 10:57:08;;;;;;;;;0.25;0.25;;;;;17.75;55.09;101421.25;6338413;22;45479;-70
2023/10/14 10:59:37;;;;;;;;;1.50;1.50;;;;;17.72;55.06;101412.44;6338800;22;46190;-71
2023/10/14 11:02:06;;;;;;;;;2.00;1.00;;;;;17.73;55.15;101422.31;6339766;22;45426;-71
2023/10/14 11:04:32;;;;;;;;;4.00;1.00;;;;;17.72;55.46;101431.34;6338751;22;45346;-71
2023/10/14 11:06:57;;;;;;;;;2.25;0.75;;;;;17.66;55.18;101435.25;6310670;22;45428;-71
2023/10/14 11:09:22;;;;;;;;;1.75;1.75;;;;;17.63;55.93;101426.44;6339567;22;45303;-71
2023/10/14 11:11:48;;;;;;;;;1.00;1.00;;;;;17.66;56.29;101437.06;6339545;22;48206;-71
2023/10/14 11:14:18;;;;;;;;;3.00;2.00;;;;;17.65;55.73;101440.72;6339084;22;45365;-70
2023/10/14 11:16:47;;;;;;;;;2.00;2.00;;;;;17.63;55.71;101442.63;6338229;22;45243;-72
2023/10/14 11:19:12;;;;;;;;;1.00;1.00;;;;;17.65;56.02;101448.84;6338794;22;45400;-71
2023/10/14 11:21:39;;;;;;;;;5.75;0.25;;;;;17.59;56.46;101450.88;6337910;22;45301;-71
2023/10/14 11:24:08;;;;;;;;;1.50;1.25;;;;;17.57;56.65;101452.81;6338978;22;45378;-71
2023/10/14 11:26:35;;;;;;;;;1.25;1.25;;;;;17.57;56.59;101450.09;6338822;22;45314;-71
2023/10/14 11:29:01;;;;;;;;;2.00;2.00;;;;;17.58;56.71;101448.25;6339306;22;45372;-70
2023/10/14 11:31:26;;;;;;;;;1.25;1.25;;;;;17.58;57.06;101450.97;6338947;22;45483;-71
2023/10/14 11:33:55;;;;;;;;;2.50;2.00;;;;;17.58;56.43;101453.66;6338888;22;45393;-71
2023/10/14 11:36:24;;;;;;;;;1.00;1.00;;;;;17.53;57.14;101453.03;6338774;22;45450;-71
2023/10/14 11:38:50;;;;;;;;;3.00;1.00;;;;;17.48;56.66;101438.88;6338312;22;45307;-71
2023/10/14 11:41:17;;;;;;;;;2.50;1.00;;;;;17.55;56.86;101456.50;6338734;22;47099;-71
2023/10/14 11:43:44;;;;;;;;;2.00;1.00;;;;;17.52;56.83;101456.66;6338551;22;45369;-70
2023/10/14 11:46:10;;;;;;;;;4.00;2.00;;;;;17.47;57.46;101464.13;6336389;22;45294;-71
2023/10/14 11:48:38;;;;;;;;;1.00;1.00;;;;;17.40;57.72;101475.22;6339243;22;45372;-70
2023/10/14 11:51:09;;;;;;;;;1.00;1.00;;;;;17.36;58.29;101468.22;6338487;22;45293;-71
2023/10/14 11:53:38;;;;;;;;;0.00;0.00;;;;;17.30;59.01;101457.72;6337207;22;45273;-71
2023/10/14 11:56:04;;;;;;;;;2.00;1.00;;;;;17.29;59.11;101461.41;6339203;22;45331;-71
2023/10/14 11:58:32;;;;;;;;;2.50;1.25;;;;;17.31;59.45;101469.41;6338650;22;45632;-71
2023/10/14 12:00:58;;;;;;;;;2.50;1.00;;;;;17.27;59.98;101465.97;6339323;22;45342;-70
2023/10/14 12:03:27;;;;;;;;;1.00;1.00;;;;;17.24;61.11;101449.97;6336935;22;45521;-70